Time;durP1;ratioP1;P1;durP2;ratioP2;P2;SDS_P1;SDS_P2;PMS_P1;PMS_P2;Temp;Humidity;BMP_temperature;BMP_pressure;BME280_temperature;BME280_humidity;BME280_pressure;Samples;Min_cycle;Max_cycle;Signal;HPM_P1;HPM_P2
2023/09/16 00:00:08;;;;;;;1.92;1.40;;;;;;;19.07;70.00;99276.28;331951;28;6203;-63
2023/09/16 00:00:20;;;;;;;1.70;1.33;;;;;;;19.09;69.91;99268.28;338773;28;4648;-63
2023/09/16 00:00:33;;;;;;;1.65;1.35;;;;;;;19.12;69.91;99279.44;336252;28;18974;-63
2023/09/16 00:00:45;;;;;;;3.10;1.40;;;;;;;19.14;69.79;99274.91;338784;28;4644;-63
2023/09/16 00:00:57;;;;;;;3.25;1.50;;;;;;;19.15;69.71;99273.94;336366;28;17929;-63
2023/09/16 00:01:10;;;;;;;2.10;1.50;;;;;;;19.19;69.67;99279.81;338682;28;5327;-64
2023/09/16 00:01:22;;;;;;;1.95;1.48;;;;;;;19.20;69.66;99270.16;336021;28;18188;-63
2023/09/16 00:01:34;;;;;;;2.00;1.38;;;;;;;19.24;69.60;99276.88;338985;28;5125;-63
2023/09/16 00:01:46;;;;;;;2.17;1.45;;;;;;;19.26;69.44;99270.53;338939;28;4699;-63
2023/09/16 00:01:59;;;;;;;2.40;1.42;;;;;;;19.28;69.53;99270.41;335992;28;17764;-63
2023/09/16 00:02:11;;;;;;;3.47;1.40;;;;;;;19.32;69.44;99279.78;338059;28;4546;-63
2023/09/16 00:02:22;;;;;;;3.45;1.48;;;;;;;19.33;69.29;99270.88;335763;28;4746;-63
2023/09/16 00:02:37;;;;;;;1.92;1.30;;;;;;;19.35;69.24;99279.53;338673;28;4597;-63
2023/09/16 00:02:49;;;;;;;1.60;1.40;;;;;;;19.37;69.08;99274.97;333653;29;18847;-63
2023/09/16 00:03:03;;;;;;;1.95;1.50;;;;;;;19.37;69.06;99267.06;335591;29;12982;-63
2023/09/16 00:03:16;;;;;;;2.00;1.50;;;;;;;19.40;69.07;99277.41;329312;28;18083;-63
2023/09/16 00:03:28;;;;;;;2.08;1.50;;;;;;;19.40;69.06;99272.13;334890;28;11964;-63
2023/09/16 00:03:40;;;;;;;1.95;1.52;;;;;;;19.42;68.96;99272.84;337482;28;4553;-63
2023/09/16 00:03:52;;;;;;;1.95;1.48;;;;;;;19.43;68.90;99271.88;337425;28;4746;-63
2023/09/16 00:04:05;;;;;;;2.10;1.53;;;;;;;19.45;69.01;99274.41;334741;28;18799;-63
2023/09/16 00:04:17;;;;;;;2.22;1.50;;;;;;;19.44;68.78;99278.84;337624;28;4624;-63
2023/09/16 00:04:29;;;;;;;2.38;1.40;;;;;;;19.46;68.81;99278.75;334962;28;18080;-63
2023/09/16 00:04:42;;;;;;;2.38;1.50;;;;;;;19.45;68.91;99275.25;337321;28;5881;-63
2023/09/16 00:04:54;;;;;;;2.50;1.65;;;;;;;19.45;68.81;99277.03;335466;28;18213;-63
2023/09/16 00:05:06;;;;;;;2.28;1.73;;;;;;;19.46;68.87;99276.94;339020;28;4507;-62
2023/09/16 00:05:18;;;;;;;2.33;1.55;;;;;;;19.46;68.98;99276.94;336379;28;11689;-63
2023/09/16 00:05:30;;;;;;;1.98;1.35;;;;;;;19.48;68.73;99277.66;336275;28;6462;-64
2023/09/16 00:05:42;;;;;;;1.90;1.40;;;;;;;19.49;68.84;99279.31;337982;28;6145;-63
2023/09/16 00:05:56;;;;;;;2.78;1.67;;;;;;;19.50;68.62;99273.09;334757;28;18249;-63
2023/09/16 00:06:17;;;;;;;2.83;1.83;;;;;;;19.53;68.48;99274.66;337207;28;6549;-63
2023/09/16 00:06:29;;;;;;;2.00;1.45;;;;;;;19.53;68.38;99275.50;334750;28;17901;-63
2023/09/16 00:06:56;;;;;;;1.92;1.33;;;;;;;19.56;68.47;99270.00;337414;28;4647;-64
2023/09/16 00:07:11;;;;;;;2.10;1.60;;;;;;;19.55;68.42;99278.84;337135;28;17634;-63
2023/09/16 00:07:23;;;;;;;3.30;1.63;;;;;;;19.56;68.46;99277.91;333976;28;17834;-63
2023/09/16 00:07:35;;;;;;;3.10;1.50;;;;;;;19.58;68.42;99280.44;335901;28;17936;-63
2023/09/16 00:07:47;;;;;;;2.17;1.42;;;;;;;19.57;68.32;99273.47;338547;28;5576;-63
2023/09/16 00:08:02;;;;;;;2.03;1.40;;;;;;;19.56;68.28;99277.91;335725;28;5898;-63
2023/09/16 00:08:14;;;;;;;2.03;1.40;;;;;;;19.58;68.37;99274.31;335614;28;17824;-63
2023/09/16 00:08:26;;;;;;;2.05;1.40;;;;;;;19.56;68.34;99272.63;338291;28;5203;-63
2023/09/16 00:08:49;;;;;;;2.13;1.45;;;;;;;19.59;68.22;99266.28;338697;28;6447;-63
2023/09/16 00:09:02;;;;;;;1.52;1.25;;;;;;;19.59;68.41;99270.72;334874;28;17414;-63
2023/09/16 00:09:14;;;;;;;1.70;1.30;;;;;;;19.59;68.35;99271.56;337105;28;4749;-63
2023/09/16 00:09:26;;;;;;;1.73;1.30;;;;;;;19.60;67.83;99273.25;335794;28;17867;-63
2023/09/16 00:09:40;;;;;;;2.40;1.50;;;;;;;19.59;68.14;99276.00;338999;28;5191;-63
2023/09/16 00:09:56;;;;;;;3.28;1.60;;;;;;;19.59;68.08;99276.00;334758;28;18209;-63
2023/09/16 00:10:08;;;;;;;2.55;1.40;;;;;;;19.58;68.15;99271.66;335618;28;18109;-63
2023/09/16 00:10:20;;;;;;;1.85;1.23;;;;;;;19.58;68.01;99274.31;335903;28;18199;-63
2023/09/16 00:10:34;;;;;;;1.80;1.30;;;;;;;19.58;68.13;99269.91;334076;28;5179;-63
2023/09/16 00:10:47;;;;;;;1.65;1.30;;;;;;;19.61;68.03;99274.09;336241;28;18098;-63
2023/09/16 00:11:00;;;;;;;2.05;1.60;;;;;;;19.59;68.03;99276.81;338955;28;4659;-63
2023/09/16 00:11:13;;;;;;;2.22;1.60;;;;;;;19.61;68.02;99279.34;335879;28;18858;-63
2023/09/16 00:11:25;;;;;;;2.10;1.45;;;;;;;19.62;67.97;99271.34;336575;28;5735;-63
2023/09/16 00:11:37;;;;;;;2.35;1.48;;;;;;;19.63;67.91;99272.16;338511;28;5157;-63
2023/09/16 00:11:50;;;;;;;2.22;1.48;;;;;;;19.63;67.98;99277.44;338791;28;4662;-63
2023/09/16 00:12:02;;;;;;;1.55;1.30;;;;;;;19.63;68.20;99272.16;331139;28;4756;-63
2023/09/16 00:12:14;;;;;;;1.67;1.35;;;;;;;19.64;68.05;99273.84;336871;28;14887;-63
2023/09/16 00:12:30;;;;;;;1.88;1.40;;;;;;;19.64;67.93;99273.84;331861;28;4720;-63
2023/09/16 00:12:42;;;;;;;2.30;1.58;;;;;;;19.65;67.82;99280.81;335961;28;17856;-63
2023/09/16 00:12:54;;;;;;;2.80;1.63;;;;;;;19.64;68.02;99273.84;338514;28;4645;-63
2023/09/16 00:13:06;;;;;;;2.78;1.60;;;;;;;19.65;67.72;99275.53;336318;28;16636;-63
2023/09/16 00:13:18;;;;;;;2.45;1.50;;;;;;;19.67;67.72;99281.53;338665;28;4676;-63
2023/09/16 00:13:30;;;;;;;2.38;1.58;;;;;;;19.66;67.97;99278.06;334398;28;4654;-63
2023/09/16 00:13:43;;;;;;;1.90;1.45;;;;;;;19.66;68.06;99274.56;335948;28;19156;-63
2023/09/16 00:13:55;;;;;;;1.67;1.45;;;;;;;19.66;67.81;99275.41;338939;28;5440;-63
2023/09/16 00:14:07;;;;;;;2.20;1.60;;;;;;;19.66;67.78;99277.19;336231;28;18243;-63
2023/09/16 00:14:21;;;;;;;2.38;1.73;;;;;;;19.66;67.87;99277.19;338335;28;4637;-63
2023/09/16 00:14:33;;;;;;;1.80;1.50;;;;;;;19.67;67.96;99273.63;335979;28;17864;-63
2023/09/16 00:14:45;;;;;;;2.10;1.63;;;;;;;19.66;68.10;99277.19;338495;28;4843;-63
2023/09/16 00:14:57;;;;;;;2.85;1.60;;;;;;;19.65;68.28;99278.16;335787;28;11924;-63
2023/09/16 00:15:09;;;;;;;2.78;1.60;;;;;;;19.64;68.02;99279.09;336641;28;17423;-63
2023/09/16 00:15:22;;;;;;;2.28;1.38;;;;;;;19.64;67.83;99274.69;338910;28;4648;-63
2023/09/16 00:15:34;;;;;;;1.63;1.42;;;;;;;19.64;68.06;99279.09;336092;28;18203;-63
2023/09/16 00:15:48;;;;;;;2.38;1.48;;;;;;;19.64;67.90;99269.41;338800;28;5160;-63
2023/09/16 00:16:00;;;;;;;2.88;1.60;;;;;;;19.64;67.79;99274.69;335915;28;18068;-63
2023/09/16 00:16:15;;;;;;;3.00;1.60;;;;;;;19.66;67.79;99274.56;336162;28;16710;-63
2023/09/16 00:16:29;;;;;;;2.15;1.30;;;;;;;19.64;67.92;99276.47;334167;28;5809;-63
2023/09/16 00:16:41;;;;;;;2.00;1.35;;;;;;;19.66;67.73;99271.91;338558;28;4666;-63
2023/09/16 00:16:55;;;;;;;2.00;1.40;;;;;;;19.64;68.15;99274.69;336308;28;19081;-63
2023/09/16 00:17:09;;;;;;;1.98;1.33;;;;;;;19.65;68.00;99267.63;336369;28;16070;-63
2023/09/16 00:17:22;;;;;;;2.05;1.25;;;;;;;19.67;67.88;99276.25;337233;28;6072;-63
2023/09/16 00:17:34;;;;;;;2.28;1.40;;;;;;;19.66;67.88;99272.78;335621;28;17566;-63
2023/09/16 00:17:46;;;;;;;2.35;1.38;;;;;;;19.64;67.40;99273.84;337966;28;5362;-63
2023/09/16 00:17:58;;;;;;;2.58;1.33;;;;;;;19.62;67.36;99276.63;331360;28;12009;-63
2023/09/16 00:18:10;;;;;;;2.45;1.40;;;;;;;19.62;67.38;99276.63;338729;28;4585;-63
2023/09/16 00:18:22;;;;;;;2.58;1.42;;;;;;;19.60;67.39;99273.25;337216;28;5601;-63
2023/09/16 00:18:35;;;;;;;2.45;1.50;;;;;;;19.61;67.58;99272.28;334508;28;19264;-63
2023/09/16 00:18:47;;;;;;;2.30;1.42;;;;;;;19.62;67.69;99275.75;337421;28;5530;-63
2023/09/16 00:18:59;;;;;;;1.67;1.30;;;;;;;19.61;67.72;99279.34;334870;28;19136;-63
2023/09/16 00:19:12;;;;;;;1.83;1.30;;;;;;;19.62;67.76;99275.75;337584;28;4652;-63
2023/09/16 00:19:24;;;;;;;2.40;1.40;;;;;;;19.63;67.70;99277.44;334531;28;17852;-63
2023/09/16 00:19:36;;;;;;;2.28;1.40;;;;;;;19.63;67.90;99275.63;337245;28;5115;-63
2023/09/16 00:19:50;;;;;;;2.05;1.40;;;;;;;19.62;67.69;99279.25;334928;28;18162;-63
2023/09/16 00:20:15;;;;;;;2.15;1.33;;;;;;;19.62;67.84;99271.34;337470;28;4658;-63
2023/09/16 00:20:28;;;;;;;1.92;1.50;;;;;;;19.66;67.42;99277.19;335623;28;17907;-63
2023/09/16 00:20:40;;;;;;;2.30;1.63;;;;;;;19.64;67.77;99285.25;338670;28;4680;-63
2023/09/16 00:20:52;;;;;;;2.22;1.60;;;;;;;19.67;67.50;99278.88;333710;28;4684;-63
2023/09/16 00:21:05;;;;;;;2.25;1.48;;;;;;;19.68;67.56;99280.56;336114;28;16377;-64
2023/09/16 00:21:17;;;;;;;2.30;1.50;;;;;;;19.67;67.41;99274.44;338899;28;5389;-63
2023/09/16 00:21:29;;;;;;;2.15;1.48;;;;;;;19.67;67.28;99286.81;334758;28;18313;-63
2023/09/16 00:21:43;;;;;;;2.13;1.50;;;;;;;19.67;67.10;99278.88;338100;28;4791;-63
2023/09/16 00:21:57;;;;;;;1.90;1.50;;;;;;;19.68;67.33;99270.00;336149;28;17540;-63
2023/09/16 00:22:10;;;;;;;2.13;1.50;;;;;;;19.68;67.33;99281.41;335048;28;17064;-63
2023/09/16 00:22:22;;;;;;;3.40;1.60;;;;;;;19.68;67.32;99281.41;335728;28;18623;-63
2023/09/16 00:22:36;;;;;;;3.78;1.60;;;;;;;19.69;67.31;99276.97;336641;28;5173;-63
2023/09/16 00:22:48;;;;;;;2.95;1.50;;;;;;;19.69;67.50;99276.97;338654;28;4739;-63
2023/09/16 00:23:04;;;;;;;1.88;1.30;;;;;;;19.68;67.59;99280.56;335983;28;18245;-63
2023/09/16 00:23:17;;;;;;;2.00;1.40;;;;;;;19.66;67.92;99282.47;332339;28;18183;-63
2023/09/16 00:23:31;;;;;;;3.35;1.38;;;;;;;19.65;67.71;99276.38;336799;28;11987;-63
2023/09/16 00:23:43;;;;;;;3.95;1.40;;;;;;;19.66;67.66;99278.06;336435;28;19086;-63
2023/09/16 00:23:55;;;;;;;4.03;1.60;;;;;;;19.65;67.83;99280.81;333112;28;6478;-63
2023/09/16 00:24:11;;;;;;;2.72;1.80;;;;;;;19.64;67.79;99279.97;337597;28;4593;-63
2023/09/16 00:24:23;;;;;;;2.70;1.80;;;;;;;19.64;67.68;99279.09;335312;28;17818;-63
2023/09/16 00:24:35;;;;;;;2.22;1.52;;;;;;;19.62;67.73;99276.63;336483;28;12369;-63
2023/09/16 00:24:47;;;;;;;1.70;1.38;;;;;;;19.62;67.79;99273.97;337007;28;5377;-63
2023/09/16 00:25:00;;;;;;;1.83;1.33;;;;;;;19.64;67.75;99279.09;335271;28;11953;-63
2023/09/16 00:25:12;;;;;;;2.17;1.52;;;;;;;19.65;67.66;99270.25;338318;28;7286;-63
2023/09/16 00:25:24;;;;;;;2.13;1.50;;;;;;;19.66;67.68;99279.81;337430;28;4761;-63
2023/09/16 00:25:41;;;;;;;4.78;1.58;;;;;;;19.65;67.82;99275.53;334671;28;18274;-63
2023/09/16 00:25:53;;;;;;;4.88;1.50;;;;;;;19.65;67.66;99278.16;333572;29;18471;-63
2023/09/16 00:26:06;;;;;;;2.15;1.50;;;;;;;19.65;67.59;99275.53;333848;29;5394;-63
2023/09/16 00:26:18;;;;;;;2.47;1.70;;;;;;;19.66;67.66;99277.19;336181;29;4704;-63
2023/09/16 00:26:30;;;;;;;2.20;1.60;;;;;;;19.66;67.66;99274.56;335901;29;12481;-63
2023/09/16 00:26:42;;;;;;;2.10;1.60;;;;;;;19.66;67.78;99274.56;329071;28;18521;-63
2023/09/16 00:26:54;;;;;;;1.73;1.35;;;;;;;19.64;67.53;99276.47;338134;28;4848;-63
2023/09/16 00:27:09;;;;;;;2.03;1.38;;;;;;;19.64;67.16;99273.84;336172;28;11910;-63
2023/09/16 00:27:26;;;;;;;2.33;1.50;;;;;;;19.64;67.71;99279.09;336142;28;17751;-63
2023/09/16 00:27:39;;;;;;;2.30;1.60;;;;;;;19.64;67.75;99273.84;336064;28;18227;-63
2023/09/16 00:27:52;;;;;;;2.35;1.48;;;;;;;19.64;67.64;99279.09;334872;28;12431;-63
2023/09/16 00:28:06;;;;;;;1.95;1.27;;;;;;;19.65;67.65;99275.53;334425;28;4702;-63
2023/09/16 00:28:18;;;;;;;2.88;1.25;;;;;;;19.64;67.79;99274.69;337315;28;18167;-63
2023/09/16 00:28:35;;;;;;;2.88;1.30;;;;;;;19.66;67.63;99266.66;337610;28;4657;-63
2023/09/16 00:28:47;;;;;;;2.00;1.40;;;;;;;19.67;67.65;99278.88;335892;28;17852;-63
2023/09/16 00:29:00;;;;;;;1.73;1.35;;;;;;;19.67;67.66;99278.88;337152;28;5321;-63
2023/09/16 00:29:12;;;;;;;2.08;1.48;;;;;;;19.67;67.52;99273.63;335026;28;11799;-63
2023/09/16 00:29:24;;;;;;;2.90;1.60;;;;;;;19.66;67.82;99266.66;336810;28;4671;-63
2023/09/16 00:29:36;;;;;;;2.60;1.55;;;;;;;19.68;67.64;99280.56;337432;28;5380;-63
2023/09/16 00:29:48;;;;;;;2.13;1.50;;;;;;;19.64;67.90;99274.69;334604;28;18438;-63
2023/09/16 00:30:00;;;;;;;2.28;1.50;;;;;;;19.66;67.70;99277.19;337435;28;4680;-63
2023/09/16 00:30:12;;;;;;;2.20;1.48;;;;;;;19.65;67.62;99275.53;335496;28;6502;-63
2023/09/16 00:30:24;;;;;;;1.85;1.50;;;;;;;19.65;67.66;99283.44;337513;28;5524;-63
2023/09/16 00:30:36;;;;;;;1.80;1.50;;;;;;;19.62;67.50;99275.75;337770;28;5187;-63
2023/09/16 00:30:48;;;;;;;2.10;1.70;;;;;;;19.60;67.65;99275.03;335022;28;18220;-63
2023/09/16 00:31:01;;;;;;;2.03;1.63;;;;;;;19.61;68.01;99274.09;337796;28;5325;-63
2023/09/16 00:31:13;;;;;;;2.33;1.60;;;;;;;19.56;67.77;99272.63;337847;28;10400;-63
2023/09/16 00:31:25;;;;;;;2.17;1.60;;;;;;;19.54;67.94;99274.56;337322;28;18256;-63
2023/09/16 00:31:38;;;;;;;2.13;1.48;;;;;;;19.54;67.92;99277.19;338887;28;4526;-63
2023/09/16 00:31:50;;;;;;;2.38;1.60;;;;;;;19.55;67.76;99281.50;335313;28;17795;-63
2023/09/16 00:32:04;;;;;;;3.08;1.55;;;;;;;19.59;67.73;99276.00;337802;28;4692;-63
2023/09/16 00:32:16;;;;;;;2.60;1.48;;;;;;;19.59;67.78;99276.81;334985;28;18381;-63
2023/09/16 00:32:28;;;;;;;2.90;1.70;;;;;;;19.59;67.80;99276.00;335462;28;12882;-63
2023/09/16 00:32:40;;;;;;;2.93;1.60;;;;;;;19.59;67.84;99273.38;332934;28;4882;-63
2023/09/16 00:32:52;;;;;;;2.85;1.65;;;;;;;19.60;67.86;99272.38;338891;28;4667;-63
2023/09/16 00:33:04;;;;;;;2.45;1.70;;;;;;;19.62;67.85;99276.63;335998;28;18324;-63
2023/09/16 00:33:16;;;;;;;3.90;1.70;;;;;;;19.64;67.72;99274.69;337040;28;4947;-63
2023/09/16 00:33:29;;;;;;;3.72;1.50;;;;;;;19.64;67.73;99279.09;335221;28;18342;-63
2023/09/16 00:33:41;;;;;;;3.65;1.45;;;;;;;19.67;67.54;99276.25;337388;28;5470;-63
2023/09/16 00:33:53;;;;;;;3.10;1.38;;;;;;;19.66;67.55;99272.78;337450;28;16028;-63
2023/09/16 00:34:05;;;;;;;2.90;1.20;;;;;;;19.67;67.70;99269.16;335045;28;18366;-63
2023/09/16 00:34:17;;;;;;;1.50;1.25;;;;;;;19.68;67.59;99270.88;332833;28;5171;-63
2023/09/16 00:34:30;;;;;;;1.85;1.48;;;;;;;19.67;67.95;99269.16;335167;28;18468;-63
2023/09/16 00:34:42;;;;;;;2.17;1.60;;;;;;;19.68;67.70;99275.28;337460;28;4707;-63
2023/09/16 00:34:54;;;;;;;2.00;1.40;;;;;;;19.67;67.72;99278.88;335292;28;16373;-63
2023/09/16 00:35:08;;;;;;;2.47;1.48;;;;;;;19.68;67.57;99270.88;337845;28;5360;-63
2023/09/16 00:35:20;;;;;;;3.78;1.50;;;;;;;19.68;67.84;99264.72;335604;28;5525;-63
2023/09/16 00:35:32;;;;;;;3.80;1.40;;;;;;;19.67;67.41;99269.16;334434;28;4670;-63
2023/09/16 00:35:44;;;;;;;3.80;1.40;;;;;;;19.68;67.30;99270.00;336624;28;11922;-63
2023/09/16 00:35:56;;;;;;;2.80;1.55;;;;;;;19.67;67.24;99278.88;338821;28;4633;-63
2023/09/16 00:36:14;;;;;;;2.20;1.67;;;;;;;19.65;67.57;99272.91;339280;28;5160;-63
2023/09/16 00:36:26;;;;;;;2.10;1.70;;;;;;;19.66;67.48;99271.91;331648;28;17792;-63
2023/09/16 00:36:38;;;;;;;2.28;1.52;;;;;;;19.67;67.36;99268.34;338593;28;5156;-63
2023/09/16 00:36:50;;;;;;;1.90;1.40;;;;;;;19.67;67.36;99263.06;335073;28;17999;-63
2023/09/16 00:37:03;;;;;;;1.60;1.23;;;;;;;19.65;67.58;99270.25;337763;28;5128;-63
2023/09/16 00:37:15;;;;;;;1.77;1.40;;;;;;;19.64;67.73;99273.84;332532;28;4634;-63
2023/09/16 00:37:27;;;;;;;2.08;1.48;;;;;;;19.61;67.54;99271.44;338675;28;4675;-63
2023/09/16 00:37:43;;;;;;;2.03;1.40;;;;;;;19.60;67.69;99273.25;336232;28;17699;-63
2023/09/16 00:37:55;;;;;;;3.83;1.40;;;;;;;19.62;67.43;99270.47;336507;28;17747;-63
2023/09/16 00:38:08;;;;;;;3.47;1.30;;;;;;;19.62;67.54;99267.84;339035;28;4594;-63
2023/09/16 00:38:21;;;;;;;1.48;1.27;;;;;;;19.63;67.46;99272.16;336672;28;4642;-63
2023/09/16 00:38:32;;;;;;;1.88;1.42;;;;;;;19.63;67.52;99273.00;334125;28;5210;-63
2023/09/16 00:38:45;;;;;;;1.73;1.50;;;;;;;19.64;67.61;99273.84;337912;28;11870;-63
2023/09/16 00:38:57;;;;;;;2.20;1.50;;;;;;;19.66;67.56;99277.19;337177;28;18227;-63
2023/09/16 00:39:09;;;;;;;2.13;1.50;;;;;;;19.65;67.73;99264.97;339025;28;6694;-63
2023/09/16 00:39:22;;;;;;;1.55;1.30;;;;;;;19.64;67.44;99276.47;335939;28;17941;-63
2023/09/16 00:39:34;;;;;;;1.85;1.42;;;;;;;19.59;67.62;99268.09;339079;28;5515;-63
2023/09/16 00:39:46;;;;;;;2.05;1.50;;;;;;;19.60;67.52;99267.13;336365;28;11353;-63
2023/09/16 00:39:58;;;;;;;2.08;1.55;;;;;;;19.56;67.44;99269.16;338671;28;4653;-63
2023/09/16 00:40:10;;;;;;;1.98;1.60;;;;;;;19.55;67.66;99268.31;338893;28;5414;-63
2023/09/16 00:40:23;;;;;;;1.98;1.55;;;;;;;19.53;67.84;99270.22;336306;28;19347;-63
2023/09/16 00:40:36;;;;;;;2.90;1.60;;;;;;;19.54;67.73;99264.00;339013;28;4636;-63
2023/09/16 00:40:48;;;;;;;2.72;1.50;;;;;;;19.54;67.65;99269.28;335478;28;18233;-63
2023/09/16 00:41:00;;;;;;;2.00;1.40;;;;;;;19.56;67.74;99270.00;338930;28;4858;-63
2023/09/16 00:41:13;;;;;;;2.50;1.63;;;;;;;19.56;67.52;99266.53;334708;28;18106;-63
2023/09/16 00:41:25;;;;;;;2.33;1.52;;;;;;;19.54;67.69;99268.44;332650;28;4992;-63
2023/09/16 00:41:39;;;;;;;2.47;1.40;;;;;;;19.54;67.82;99269.28;335016;28;18937;-63
2023/09/16 00:41:51;;;;;;;2.78;1.55;;;;;;;19.55;67.75;99270.94;333774;29;12258;-63
2023/09/16 00:42:03;;;;;;;2.33;1.60;;;;;;;19.55;67.70;99262.19;336314;29;5608;-63
2023/09/16 00:42:16;;;;;;;1.90;1.60;;;;;;;19.55;67.77;99267.47;336061;28;4579;-64
2023/09/16 00:42:28;;;;;;;1.80;1.50;;;;;;;19.53;67.85;99272.84;334021;28;17727;-63
2023/09/16 00:42:40;;;;;;;1.70;1.50;;;;;;;19.51;67.73;99264.22;337330;28;4668;-63
2023/09/16 00:42:53;;;;;;;1.63;1.40;;;;;;;19.51;67.77;99272.13;335166;28;12153;-63
2023/09/16 00:43:05;;;;;;;1.70;1.30;;;;;;;19.52;67.85;99271.19;332919;28;4678;-63
2023/09/16 00:43:18;;;;;;;1.90;1.40;;;;;;;19.51;67.85;99269.50;335524;28;18249;-63
2023/09/16 00:43:30;;;;;;;2.75;1.67;;;;;;;19.52;67.79;99271.19;338306;28;4623;-63
2023/09/16 00:43:42;;;;;;;2.65;1.65;;;;;;;19.55;67.69;99268.31;336347;28;12213;-63
2023/09/16 00:43:54;;;;;;;2.13;1.48;;;;;;;19.55;67.68;99270.94;338987;28;5132;-63
2023/09/16 00:44:06;;;;;;;1.77;1.30;;;;;;;19.55;67.70;99270.94;337772;28;5219;-63
2023/09/16 00:44:18;;;;;;;2.00;1.20;;;;;;;19.52;67.65;99268.56;335021;28;18084;-63
2023/09/16 00:44:32;;;;;;;2.03;1.35;;;;;;;19.47;67.97;99275.13;337684;28;5515;-63
2023/09/16 00:44:44;;;;;;;1.95;1.42;;;;;;;19.47;67.91;99269.84;336317;28;19024;-63
2023/09/16 00:44:56;;;;;;;1.65;1.33;;;;;;;19.47;67.86;99265.41;340074;28;4641;-63
2023/09/16 00:45:17;;;;;;;1.40;1.20;;;;;;;19.45;68.25;99263.84;337721;28;18503;-63
2023/09/16 00:45:29;;;;;;;1.77;1.17;;;;;;;19.45;68.33;99264.69;334779;28;17755;-63
2023/09/16 00:45:42;;;;;;;2.10;1.20;;;;;;;19.45;68.03;99263.84;337573;28;5182;-63
2023/09/16 00:45:55;;;;;;;2.10;1.40;;;;;;;19.44;67.98;99273.56;331549;28;12789;-63
2023/09/16 00:46:09;;;;;;;2.08;1.60;;;;;;;19.43;68.00;99277.16;338751;28;4748;-63
2023/09/16 00:46:28;;;;;;;1.70;1.35;;;;;;;19.44;67.93;99265.66;336605;28;17926;-63
2023/09/16 00:46:48;;;;;;;1.52;1.30;;;;;;;19.44;68.03;99268.28;339266;28;17958;-63
2023/09/16 00:47:00;;;;;;;1.85;1.40;;;;;;;19.46;68.01;99266.38;335405;28;18022;-63
2023/09/16 00:47:13;;;;;;;2.47;1.60;;;;;;;19.47;67.97;99268.06;338287;28;4583;-63
2023/09/16 00:47:25;;;;;;;2.95;1.80;;;;;;;19.48;67.78;99263.63;336490;28;18140;-63
2023/09/16 00:47:39;;;;;;;2.50;1.80;;;;;;;19.48;67.96;99264.47;331430;28;7423;-63
2023/09/16 00:47:52;;;;;;;2.13;1.67;;;;;;;19.49;68.19;99268.78;334882;28;18216;-63
2023/09/16 00:48:04;;;;;;;1.85;1.60;;;;;;;19.50;67.90;99267.84;336417;28;5107;-63
2023/09/16 00:48:18;;;;;;;2.83;1.70;;;;;;;19.50;67.97;99273.09;337116;28;18267;-63
2023/09/16 00:48:30;;;;;;;4.80;1.60;;;;;;;19.52;67.99;99268.56;335189;28;18151;-63
2023/09/16 00:48:45;;;;;;;4.53;1.38;;;;;;;19.50;68.29;99267.84;338702;28;4669;-63
2023/09/16 00:48:58;;;;;;;2.13;1.40;;;;;;;19.50;68.02;99264.38;331412;28;19138;-63
2023/09/16 00:49:10;;;;;;;2.20;1.38;;;;;;;19.50;68.03;99267.00;336664;28;10789;-63
2023/09/16 00:49:22;;;;;;;2.60;1.55;;;;;;;19.50;67.92;99267.84;338576;28;5584;-63
2023/09/16 00:49:35;;;;;;;2.85;1.65;;;;;;;19.51;67.85;99269.50;335871;28;4755;-63
2023/09/16 00:49:47;;;;;;;3.10;1.80;;;;;;;19.50;67.88;99264.38;339159;28;4691;-63
2023/09/16 00:50:00;;;;;;;2.80;1.85;;;;;;;19.50;67.76;99267.00;335937;28;16552;-63
2023/09/16 00:50:13;;;;;;;2.70;1.60;;;;;;;19.50;67.95;99262.56;337887;28;5158;-63
2023/09/16 00:50:25;;;;;;;2.78;1.58;;;;;;;19.51;67.85;99269.50;334284;28;18225;-63
2023/09/16 00:50:38;;;;;;;2.53;1.60;;;;;;;19.52;67.92;99271.19;337216;28;17799;-63
2023/09/16 00:50:51;;;;;;;2.72;1.40;;;;;;;19.51;67.61;99269.50;330509;28;18176;-63
2023/09/16 00:51:04;;;;;;;3.25;1.52;;;;;;;19.51;67.85;99260.75;338713;28;4666;-63
2023/09/16 00:51:16;;;;;;;2.55;1.60;;;;;;;19.50;67.78;99264.38;336315;28;18329;-63
2023/09/16 00:51:28;;;;;;;1.90;1.52;;;;;;;19.50;67.79;99267.84;339124;28;5409;-63
2023/09/16 00:51:44;;;;;;;1.63;1.30;;;;;;;19.52;67.72;99267.72;336468;28;18258;-63
2023/09/16 00:51:57;;;;;;;1.77;1.40;;;;;;;19.51;67.64;99264.22;336177;28;18006;-63
2023/09/16 00:52:10;;;;;;;2.35;1.60;;;;;;;19.51;67.74;99264.22;339086;28;4665;-63
2023/09/16 00:52:22;;;;;;;2.90;1.75;;;;;;;19.53;67.80;99266.75;335568;28;18178;-63
2023/09/16 00:52:38;;;;;;;2.38;1.60;;;;;;;19.53;67.86;99267.59;337402;28;5476;-63
2023/09/16 00:52:53;;;;;;;2.15;1.52;;;;;;;19.48;67.69;99259.19;337635;28;18079;-63
2023/09/16 00:53:05;;;;;;;2.53;1.70;;;;;;;19.48;67.77;99266.28;337174;28;17909;-63
2023/09/16 00:53:18;;;;;;;2.45;1.60;;;;;;;19.49;67.73;99266.13;336912;28;18468;-63
2023/09/16 00:53:30;;;;;;;2.50;1.67;;;;;;;19.45;67.69;99262.06;338916;28;4736;-63
2023/09/16 00:53:45;;;;;;;2.30;1.63;;;;;;;19.44;67.90;99273.56;331436;28;5118;-63
2023/09/16 00:53:57;;;;;;;2.38;1.73;;;;;;;19.39;68.06;99259.88;336783;28;4688;-63
2023/09/16 00:54:09;;;;;;;2.42;1.70;;;;;;;19.40;68.25;99266.00;338902;28;4643;-63
2023/09/16 00:54:21;;;;;;;2.08;1.40;;;;;;;19.39;68.16;99259.88;338779;28;4733;-63
2023/09/16 00:54:34;;;;;;;2.13;1.40;;;;;;;19.40;68.17;99261.59;335485;28;18085;-63
2023/09/16 00:54:50;;;;;;;2.38;1.50;;;;;;;19.40;68.21;99261.59;338611;28;4693;-63
2023/09/16 00:55:03;;;;;;;2.10;1.40;;;;;;;19.43;68.15;99263.97;331672;28;18167;-63
2023/09/16 00:55:16;;;;;;;2.17;1.33;;;;;;;19.46;68.17;99258.47;337876;28;4733;-63
2023/09/16 00:55:28;;;;;;;2.20;1.40;;;;;;;19.46;68.21;99265.56;336150;28;19153;-63
2023/09/16 00:55:41;;;;;;;2.03;1.52;;;;;;;19.46;68.12;99263.75;339180;28;4663;-63
2023/09/16 00:55:53;;;;;;;2.15;1.60;;;;;;;19.47;68.29;99256.69;336241;28;17891;-63
2023/09/16 00:56:05;;;;;;;2.40;1.80;;;;;;;19.46;68.16;99255.84;339024;28;5349;-63
2023/09/16 00:56:17;;;;;;;2.75;1.70;;;;;;;19.48;68.15;99259.19;339030;28;18407;-63
2023/09/16 00:56:39;;;;;;;3.05;1.83;;;;;;;19.48;67.85;99263.63;332075;28;17761;-63
2023/09/16 00:56:52;;;;;;;3.10;1.70;;;;;;;19.48;68.16;99266.28;335562;28;18833;-63
2023/09/16 00:57:18;;;;;;;2.83;1.67;;;;;;;19.48;68.00;99264.47;335200;28;18106;-63
2023/09/16 00:57:33;;;;;;;2.83;1.60;;;;;;;19.50;67.84;99262.56;338496;28;6208;-63
2023/09/16 00:57:48;;;;;;;3.15;1.58;;;;;;;19.51;67.93;99264.22;336110;28;17947;-63
2023/09/16 00:58:01;;;;;;;2.70;1.63;;;;;;;19.51;67.91;99263.38;331628;28;18138;-63
2023/09/16 00:58:17;;;;;;;2.67;1.52;;;;;;;19.52;68.10;99262.44;336157;28;19045;-63
2023/09/16 00:58:29;;;;;;;2.50;1.40;;;;;;;19.52;68.07;99265.91;335150;28;18929;-63
2023/09/16 00:58:41;;;;;;;2.47;1.50;;;;;;;19.52;67.89;99259.81;337931;28;5932;-63
2023/09/16 00:58:58;;;;;;;2.35;1.60;;;;;;;19.52;68.02;99260.66;336491;28;18217;-63
2023/09/16 00:59:12;;;;;;;3.08;1.77;;;;;;;19.55;67.86;99260.41;337012;28;18199;-63
2023/09/16 00:59:25;;;;;;;2.80;1.60;;;;;;;19.55;67.67;99263.03;336492;28;4560;-63
2023/09/16 00:59:38;;;;;;;2.67;1.80;;;;;;;19.54;67.77;99256.09;339006;28;4644;-63
2023/09/16 00:59:50;;;;;;;2.47;1.80;;;;;;;19.55;67.62;99265.66;336368;28;18382;-63
2023/09/16 01:00:07;;;;;;;3.45;1.77;;;;;;;19.55;67.70;99257.75;339021;28;5824;-63
2023/09/16 01:00:23;;;;;;;3.78;1.70;;;;;;;19.59;67.63;99254.91;336090;28;17552;-64
2023/09/16 01:00:36;;;;;;;3.35;1.65;;;;;;;19.54;67.74;99256.09;336179;28;18134;-63
2023/09/16 01:00:48;;;;;;;3.30;1.60;;;;;;;19.54;67.70;99258.72;339072;28;4666;-63
2023/09/16 01:01:01;;;;;;;2.33;1.63;;;;;;;19.53;67.70;99257.03;336322;28;18160;-63
2023/09/16 01:01:15;;;;;;;2.00;1.58;;;;;;;19.53;67.74;99257.03;339127;28;5380;-63
2023/09/16 01:01:27;;;;;;;2.38;1.63;;;;;;;19.52;67.89;99260.66;336429;28;18954;-63
2023/09/16 01:01:41;;;;;;;2.63;1.75;;;;;;;19.53;68.04;99261.47;336745;28;12156;-63
2023/09/16 01:01:54;;;;;;;2.25;1.70;;;;;;;19.52;67.64;99255.38;335347;28;5432;-63
2023/09/16 01:02:09;;;;;;;2.30;1.60;;;;;;;19.51;67.82;99258.94;337719;28;4628;-63
2023/09/16 01:02:21;;;;;;;3.90;1.85;;;;;;;19.54;67.79;99248.19;334769;28;17980;-63
2023/09/16 01:02:35;;;;;;;3.38;1.70;;;;;;;19.54;67.73;99258.72;337952;28;4610;-63
2023/09/16 01:02:47;;;;;;;2.17;1.48;;;;;;;19.55;67.74;99256.94;335289;28;18141;-63